Chrisman, Illinois
Current Conditions -  °F | °C
As of 1:15 PM on Monday 22 Dec 2014 (Local Time) from KPRG Reporting Station
Drizzle Drizzle  
Wind Chill: 36°   Ceiling: 1700
Heat Index: 43°   Visibility: 7mi
Dew Point: 42°   Wind: 14mph
Humidity: 97%   Direction: 140°SE
Pressure: 29.74"   Gusts: NA
Location:  39.8°N, 87.67°W
Report Text: KPRG 221915Z AUTO 14012KT 7SM -DZ OVC017 06/06 A2974 RMK AO2 T00600055
Loading
Personal Weather Stations






























Interactive Weather Map New forecast layout! Learn more

10-Day Weather Forecast

Advertisements
Track Severe Weather on mobile